sensor_id;sensor_type;location;lat;lon;timestamp;temperature;humidity
74513;DHT22;62992;52.052;8.550;2023-06-10T00:00:19;17.50;99.90
74513;DHT22;62992;52.052;8.550;2023-06-10T00:03:04;17.50;99.90
74513;DHT22;62992;52.052;8.550;2023-06-10T00:05:48;17.50;99.90
74513;DHT22;62992;52.052;8.550;2023-06-10T00:08:33;17.50;99.90
74513;DHT22;62992;52.052;8.550;2023-06-10T00:11:17;17.50;99.90
74513;DHT22;62992;52.052;8.550;2023-06-10T00:14:01;17.40;99.90
74513;DHT22;62992;52.052;8.550;2023-06-10T00:16:45;17.30;99.90
74513;DHT22;62992;52.052;8.550;2023-06-10T00:19:30;17.40;99.90
74513;DHT22;62992;52.052;8.550;2023-06-10T00:22:14;17.30;99.90
74513;DHT22;62992;52.052;8.550;2023-06-10T00:24:58;17.20;99.90
74513;DHT22;62992;52.052;8.550;2023-06-10T00:27:42;17.30;99.90
74513;DHT22;62992;52.052;8.550;2023-06-10T00:30:26;17.20;99.90
74513;DHT22;62992;52.052;8.550;2023-06-10T00:33:10;17.20;99.90
74513;DHT22;62992;52.052;8.550;2023-06-10T00:35:55;17.10;99.90
74513;DHT22;62992;52.052;8.550;2023-06-10T00:38:39;17.10;99.90
74513;DHT22;62992;52.052;8.550;2023-06-10T00:41:25;17.00;99.90
74513;DHT22;62992;52.052;8.550;2023-06-10T00:44:10;17.10;99.90
74513;DHT22;62992;52.052;8.550;2023-06-10T00:46:54;17.10;99.90
74513;DHT22;62992;52.052;8.550;2023-06-10T00:49:39;16.90;99.90
74513;DHT22;62992;52.052;8.550;2023-06-10T00:52:24;16.90;99.90
74513;DHT22;62992;52.052;8.550;2023-06-10T00:55:11;16.90;99.90
74513;DHT22;62992;52.052;8.550;2023-06-10T00:57:55;16.90;99.90
74513;DHT22;62992;52.052;8.550;2023-06-10T01:00:40;16.80;99.90
74513;DHT22;62992;52.052;8.550;2023-06-10T01:03:24;16.80;99.90
74513;DHT22;62992;52.052;8.550;2023-06-10T01:09:29;16.80;99.90
74513;DHT22;62992;52.052;8.550;2023-06-10T01:12:26;16.70;99.90
74513;DHT22;62992;52.052;8.550;2023-06-10T01:15:13;16.70;99.90
74513;DHT22;62992;52.052;8.550;2023-06-10T01:17:58;16.60;99.90
74513;DHT22;62992;52.052;8.550;2023-06-10T01:20:43;16.70;99.90
74513;DHT22;62992;52.052;8.550;2023-06-10T01:23:28;16.60;99.90
74513;DHT22;62992;52.052;8.550;2023-06-10T01:26:12;16.60;99.90
74513;DHT22;62992;52.052;8.550;2023-06-10T01:31:42;16.50;99.90
74513;DHT22;62992;52.052;8.550;2023-06-10T01:34:26;16.50;99.90
74513;DHT22;62992;52.052;8.550;2023-06-10T01:37:12;16.40;99.90
74513;DHT22;62992;52.052;8.550;2023-06-10T01:39:57;16.50;99.90
74513;DHT22;62992;52.052;8.550;2023-06-10T01:42:42;16.50;99.90
74513;DHT22;62992;52.052;8.550;2023-06-10T01:45:26;16.40;99.90
74513;DHT22;62992;52.052;8.550;2023-06-10T01:48:10;16.40;99.90
74513;DHT22;62992;52.052;8.550;2023-06-10T01:50:54;16.30;99.90
74513;DHT22;62992;52.052;8.550;2023-06-10T01:53:42;16.20;99.90
74513;DHT22;62992;52.052;8.550;2023-06-10T01:56:26;16.20;99.90
74513;DHT22;62992;52.052;8.550;2023-06-10T01:59:10;16.30;99.90
74513;DHT22;62992;52.052;8.550;2023-06-10T02:01:54;16.20;99.90
74513;DHT22;62992;52.052;8.550;2023-06-10T02:04:38;16.20;99.90
74513;DHT22;62992;52.052;8.550;2023-06-10T02:07:22;16.20;99.90
74513;DHT22;62992;52.052;8.550;2023-06-10T02:10:07;16.20;99.90
74513;DHT22;62992;52.052;8.550;2023-06-10T02:12:51;16.20;99.90
74513;DHT22;62992;52.052;8.550;2023-06-10T02:15:35;16.20;99.90
74513;DHT22;62992;52.052;8.550;2023-06-10T02:18:20;16.10;99.90
74513;DHT22;62992;52.052;8.550;2023-06-10T02:21:04;16.10;99.90
74513;DHT22;62992;52.052;8.550;2023-06-10T02:23:48;16.10;99.90
74513;DHT22;62992;52.052;8.550;2023-06-10T02:26:33;16.10;99.90
74513;DHT22;62992;52.052;8.550;2023-06-10T02:29:17;16.20;99.90
74513;DHT22;62992;52.052;8.550;2023-06-10T02:32:02;16.20;99.90
74513;DHT22;62992;52.052;8.550;2023-06-10T02:34:46;16.10;99.90
74513;DHT22;62992;52.052;8.550;2023-06-10T02:37:30;16.20;99.90
74513;DHT22;62992;52.052;8.550;2023-06-10T02:40:14;16.10;99.90
74513;DHT22;62992;52.052;8.550;2023-06-10T02:42:58;16.00;99.90
74513;DHT22;62992;52.052;8.550;2023-06-10T02:45:43;16.10;99.90
74513;DHT22;62992;52.052;8.550;2023-06-10T02:48:27;16.10;99.90
74513;DHT22;62992;52.052;8.550;2023-06-10T02:51:12;16.10;99.90
74513;DHT22;62992;52.052;8.550;2023-06-10T02:53:56;16.00;99.90
74513;DHT22;62992;52.052;8.550;2023-06-10T02:56:40;16.00;99.90
74513;DHT22;62992;52.052;8.550;2023-06-10T02:59:25;15.90;99.90
74513;DHT22;62992;52.052;8.550;2023-06-10T03:02:10;15.90;99.90
74513;DHT22;62992;52.052;8.550;2023-06-10T03:04:55;15.90;99.90
74513;DHT22;62992;52.052;8.550;2023-06-10T03:07:39;15.80;99.90
74513;DHT22;62992;52.052;8.550;2023-06-10T03:10:24;15.80;99.90
74513;DHT22;62992;52.052;8.550;2023-06-10T03:13:08;15.80;99.90
74513;DHT22;62992;52.052;8.550;2023-06-10T03:15:53;15.90;99.90
74513;DHT22;62992;52.052;8.550;2023-06-10T03:18:38;15.80;99.90
74513;DHT22;62992;52.052;8.550;2023-06-10T03:21:23;15.80;99.90
74513;DHT22;62992;52.052;8.550;2023-06-10T03:24:07;15.80;99.90
74513;DHT22;62992;52.052;8.550;2023-06-10T03:26:51;15.80;99.90
74513;DHT22;62992;52.052;8.550;2023-06-10T03:29:35;15.70;99.90
74513;DHT22;62992;52.052;8.550;2023-06-10T03:32:19;15.70;99.90
74513;DHT22;62992;52.052;8.550;2023-06-10T03:35:03;15.70;99.90
74513;DHT22;62992;52.052;8.550;2023-06-10T03:37:47;15.60;99.90
74513;DHT22;62992;52.052;8.550;2023-06-10T03:40:32;15.60;99.90
74513;DHT22;62992;52.052;8.550;2023-06-10T03:43:16;15.50;99.90
74513;DHT22;62992;52.052;8.550;2023-06-10T03:46:00;15.60;99.90
74513;DHT22;62992;52.052;8.550;2023-06-10T03:48:44;15.60;99.90
74513;DHT22;62992;52.052;8.550;2023-06-10T03:51:29;15.50;99.90
74513;DHT22;62992;52.052;8.550;2023-06-10T03:54:13;15.50;99.90
74513;DHT22;62992;52.052;8.550;2023-06-10T03:56:57;15.50;99.90
74513;DHT22;62992;52.052;8.550;2023-06-10T03:59:41;15.50;99.90
74513;DHT22;62992;52.052;8.550;2023-06-10T04:02:25;15.50;99.90
74513;DHT22;62992;52.052;8.550;2023-06-10T04:05:10;15.60;99.90
74513;DHT22;62992;52.052;8.550;2023-06-10T04:07:54;15.60;99.90
74513;DHT22;62992;52.052;8.550;2023-06-10T04:10:38;15.60;99.90
74513;DHT22;62992;52.052;8.550;2023-06-10T04:13:23;15.60;99.90
74513;DHT22;62992;52.052;8.550;2023-06-10T04:16:07;15.60;99.90
74513;DHT22;62992;52.052;8.550;2023-06-10T04:18:51;15.70;99.90
74513;DHT22;62992;52.052;8.550;2023-06-10T04:21:35;15.70;99.90
74513;DHT22;62992;52.052;8.550;2023-06-10T04:24:19;15.70;99.90
74513;DHT22;62992;52.052;8.550;2023-06-10T04:27:04;15.70;99.90
74513;DHT22;62992;52.052;8.550;2023-06-10T04:29:48;15.80;99.90
74513;DHT22;62992;52.052;8.550;2023-06-10T04:32:32;15.80;99.90
74513;DHT22;62992;52.052;8.550;2023-06-10T04:35:16;15.80;99.90
74513;DHT22;62992;52.052;8.550;2023-06-10T04:38:00;15.90;99.90
74513;DHT22;62992;52.052;8.550;2023-06-10T04:40:46;15.90;99.90
74513;DHT22;62992;52.052;8.550;2023-06-10T04:43:31;15.90;99.90
74513;DHT22;62992;52.052;8.550;2023-06-10T04:46:15;16.00;99.90
74513;DHT22;62992;52.052;8.550;2023-06-10T04:48:59;16.00;99.90
74513;DHT22;62992;52.052;8.550;2023-06-10T04:51:43;16.00;99.90
74513;DHT22;62992;52.052;8.550;2023-06-10T04:54:28;16.10;99.90
74513;DHT22;62992;52.052;8.550;2023-06-10T04:57:12;16.10;99.90
74513;DHT22;62992;52.052;8.550;2023-06-10T04:59:56;16.20;99.90
74513;DHT22;62992;52.052;8.550;2023-06-10T05:02:40;16.20;99.90
74513;DHT22;62992;52.052;8.550;2023-06-10T05:05:24;16.30;99.90
74513;DHT22;62992;52.052;8.550;2023-06-10T05:08:09;16.40;99.90
74513;DHT22;62992;52.052;8.550;2023-06-10T05:10:53;16.50;99.90
74513;DHT22;62992;52.052;8.550;2023-06-10T05:13:37;16.70;99.90
74513;DHT22;62992;52.052;8.550;2023-06-10T05:16:23;16.70;99.90
74513;DHT22;62992;52.052;8.550;2023-06-10T05:19:07;16.90;99.90
74513;DHT22;62992;52.052;8.550;2023-06-10T05:21:52;17.10;99.90
74513;DHT22;62992;52.052;8.550;2023-06-10T05:24:36;17.40;99.90
74513;DHT22;62992;52.052;8.550;2023-06-10T05:27:20;17.50;99.90
74513;DHT22;62992;52.052;8.550;2023-06-10T05:30:05;17.70;99.90
74513;DHT22;62992;52.052;8.550;2023-06-10T05:32:51;18.00;99.90
74513;DHT22;62992;52.052;8.550;2023-06-10T05:35:35;18.20;99.90
74513;DHT22;62992;52.052;8.550;2023-06-10T05:38:19;18.50;99.90
74513;DHT22;62992;52.052;8.550;2023-06-10T05:41:03;18.60;99.90
74513;DHT22;62992;52.052;8.550;2023-06-10T05:43:48;18.90;99.90
74513;DHT22;62992;52.052;8.550;2023-06-10T05:46:32;18.90;99.90
74513;DHT22;62992;52.052;8.550;2023-06-10T05:49:16;19.30;99.90
74513;DHT22;62992;52.052;8.550;2023-06-10T05:52:00;19.70;99.90
74513;DHT22;62992;52.052;8.550;2023-06-10T05:54:44;19.90;99.90
74513;DHT22;62992;52.052;8.550;2023-06-10T05:57:29;20.30;99.90
74513;DHT22;62992;52.052;8.550;2023-06-10T06:00:13;20.60;99.90
74513;DHT22;62992;52.052;8.550;2023-06-10T06:02:57;20.80;99.90
74513;DHT22;62992;52.052;8.550;2023-06-10T06:05:42;21.00;99.90
74513;DHT22;62992;52.052;8.550;2023-06-10T06:08:26;21.30;99.90
74513;DHT22;62992;52.052;8.550;2023-06-10T06:11:10;21.70;99.90
74513;DHT22;62992;52.052;8.550;2023-06-10T06:13:54;22.20;99.90
74513;DHT22;62992;52.052;8.550;2023-06-10T06:16:40;22.70;99.90
74513;DHT22;62992;52.052;8.550;2023-06-10T06:19:24;23.10;99.90
74513;DHT22;62992;52.052;8.550;2023-06-10T06:22:08;23.80;99.40
74513;DHT22;62992;52.052;8.550;2023-06-10T06:24:52;24.40;98.40
74513;DHT22;62992;52.052;8.550;2023-06-10T06:27:36;24.70;98.20
74513;DHT22;62992;52.052;8.550;2023-06-10T06:30:20;24.90;97.20
74513;DHT22;62992;52.052;8.550;2023-06-10T06:33:05;25.20;97.40
74513;DHT22;62992;52.052;8.550;2023-06-10T06:35:49;25.50;97.10
74513;DHT22;62992;52.052;8.550;2023-06-10T06:38:33;25.60;96.30
74513;DHT22;62992;52.052;8.550;2023-06-10T06:41:17;25.60;96.50
74513;DHT22;62992;52.052;8.550;2023-06-10T06:44:01;25.70;96.40
74513;DHT22;62992;52.052;8.550;2023-06-10T06:46:46;25.80;95.80
74513;DHT22;62992;52.052;8.550;2023-06-10T06:49:31;26.00;95.40
74513;DHT22;62992;52.052;8.550;2023-06-10T06:52:15;26.10;95.70
74513;DHT22;62992;52.052;8.550;2023-06-10T06:54:59;26.30;94.90
74513;DHT22;62992;52.052;8.550;2023-06-10T06:57:43;26.30;94.40
74513;DHT22;62992;52.052;8.550;2023-06-10T07:00:27;26.40;94.40
74513;DHT22;62992;52.052;8.550;2023-06-10T07:03:11;26.60;94.40
74513;DHT22;62992;52.052;8.550;2023-06-10T07:05:56;26.80;94.20
74513;DHT22;62992;52.052;8.550;2023-06-10T07:08:40;26.60;94.20
74513;DHT22;62992;52.052;8.550;2023-06-10T07:11:24;27.00;93.30
74513;DHT22;62992;52.052;8.550;2023-06-10T07:14:09;27.10;93.90
74513;DHT22;62992;52.052;8.550;2023-06-10T07:16:53;27.40;93.80
74513;DHT22;62992;52.052;8.550;2023-06-10T07:19:37;27.40;92.20
74513;DHT22;62992;52.052;8.550;2023-06-10T07:22:21;27.50;91.80
74513;DHT22;62992;52.052;8.550;2023-06-10T07:25:05;27.70;92.80
74513;DHT22;62992;52.052;8.550;2023-06-10T07:27:49;27.40;92.00
74513;DHT22;62992;52.052;8.550;2023-06-10T07:30:33;27.60;93.10
74513;DHT22;62992;52.052;8.550;2023-06-10T07:33:18;27.80;92.30
74513;DHT22;62992;52.052;8.550;2023-06-10T07:36:02;28.00;92.10
74513;DHT22;62992;52.052;8.550;2023-06-10T07:38:46;28.00;92.30
74513;DHT22;62992;52.052;8.550;2023-06-10T07:41:30;28.30;91.40
74513;DHT22;62992;52.052;8.550;2023-06-10T07:44:14;28.00;92.20
74513;DHT22;62992;52.052;8.550;2023-06-10T07:46:58;27.90;92.30
74513;DHT22;62992;52.052;8.550;2023-06-10T07:49:43;28.10;91.50
74513;DHT22;62992;52.052;8.550;2023-06-10T07:52:27;28.50;91.60
74513;DHT22;62992;52.052;8.550;2023-06-10T07:55:12;28.70;91.30
74513;DHT22;62992;52.052;8.550;2023-06-10T07:57:56;28.60;91.20
74513;DHT22;62992;52.052;8.550;2023-06-10T08:00:40;28.50;90.90
74513;DHT22;62992;52.052;8.550;2023-06-10T08:03:24;28.50;91.20
74513;DHT22;62992;52.052;8.550;2023-06-10T08:06:09;28.60;90.90
74513;DHT22;62992;52.052;8.550;2023-06-10T08:08:55;28.10;89.70
74513;DHT22;62992;52.052;8.550;2023-06-10T08:11:39;28.40;90.60
74513;DHT22;62992;52.052;8.550;2023-06-10T08:14:23;28.30;90.30
74513;DHT22;62992;52.052;8.550;2023-06-10T08:17:07;28.10;90.30
74513;DHT22;62992;52.052;8.550;2023-06-10T08:19:52;28.30;90.50
74513;DHT22;62992;52.052;8.550;2023-06-10T08:22:36;28.10;90.50
74513;DHT22;62992;52.052;8.550;2023-06-10T08:25:20;28.30;91.50
74513;DHT22;62992;52.052;8.550;2023-06-10T08:28:06;28.50;90.70
74513;DHT22;62992;52.052;8.550;2023-06-10T08:30:50;28.20;91.50
74513;DHT22;62992;52.052;8.550;2023-06-10T08:33:34;28.00;91.80
74513;DHT22;62992;52.052;8.550;2023-06-10T08:36:18;28.40;92.20
74513;DHT22;62992;52.052;8.550;2023-06-10T08:39:02;28.70;91.10
74513;DHT22;62992;52.052;8.550;2023-06-10T08:41:59;28.30;91.40
74513;DHT22;62992;52.052;8.550;2023-06-10T08:44:44;28.40;92.40
74513;DHT22;62992;52.052;8.550;2023-06-10T08:47:30;28.30;91.60
74513;DHT22;62992;52.052;8.550;2023-06-10T08:50:19;28.20;92.50
74513;DHT22;62992;52.052;8.550;2023-06-10T08:53:06;28.50;91.60
74513;DHT22;62992;52.052;8.550;2023-06-10T08:55:51;28.20;90.40
74513;DHT22;62992;52.052;8.550;2023-06-10T08:58:38;28.00;90.30
74513;DHT22;62992;52.052;8.550;2023-06-10T09:01:25;27.50;90.20
74513;DHT22;62992;52.052;8.550;2023-06-10T09:04:10;27.50;91.10
74513;DHT22;62992;52.052;8.550;2023-06-10T09:06:54;27.70;91.00
74513;DHT22;62992;52.052;8.550;2023-06-10T09:09:40;27.70;91.20
74513;DHT22;62992;52.052;8.550;2023-06-10T09:12:25;27.40;92.00
74513;DHT22;62992;52.052;8.550;2023-06-10T09:15:10;27.40;93.10
74513;DHT22;62992;52.052;8.550;2023-06-10T09:17:55;27.40;92.20
74513;DHT22;62992;52.052;8.550;2023-06-10T09:20:39;26.90;92.80
74513;DHT22;62992;52.052;8.550;2023-06-10T09:23:24;27.00;92.30
74513;DHT22;62992;52.052;8.550;2023-06-10T09:26:08;27.10;92.60
74513;DHT22;62992;52.052;8.550;2023-06-10T09:28:57;27.30;93.10
74513;DHT22;62992;52.052;8.550;2023-06-10T09:31:41;27.40;91.90
74513;DHT22;62992;52.052;8.550;2023-06-10T09:34:27;27.40;92.50
74513;DHT22;62992;52.052;8.550;2023-06-10T09:37:12;27.10;92.10
74513;DHT22;62992;52.052;8.550;2023-06-10T09:40:04;26.80;92.30
74513;DHT22;62992;52.052;8.550;2023-06-10T09:42:56;27.00;92.10
74513;DHT22;62992;52.052;8.550;2023-06-10T09:45:41;27.70;93.00
74513;DHT22;62992;52.052;8.550;2023-06-10T09:48:27;27.80;91.90
74513;DHT22;62992;52.052;8.550;2023-06-10T09:51:12;27.40;91.60
74513;DHT22;62992;52.052;8.550;2023-06-10T09:53:56;26.90;93.60
74513;DHT22;62992;52.052;8.550;2023-06-10T09:56:42;27.30;92.60
74513;DHT22;62992;52.052;8.550;2023-06-10T09:59:30;27.30;92.60
74513;DHT22;62992;52.052;8.550;2023-06-10T10:02:15;27.70;92.20
74513;DHT22;62992;52.052;8.550;2023-06-10T10:05:03;27.40;92.50
74513;DHT22;62992;52.052;8.550;2023-06-10T10:07:50;27.10;93.70
74513;DHT22;62992;52.052;8.550;2023-06-10T10:10:35;27.40;91.90
74513;DHT22;62992;52.052;8.550;2023-06-10T10:13:19;27.50;92.20
74513;DHT22;62992;52.052;8.550;2023-06-10T10:16:04;27.90;93.00
74513;DHT22;62992;52.052;8.550;2023-06-10T10:18:54;27.60;92.60
74513;DHT22;62992;52.052;8.550;2023-06-10T10:21:39;27.60;93.40
74513;DHT22;62992;52.052;8.550;2023-06-10T10:24:30;27.90;92.90
74513;DHT22;62992;52.052;8.550;2023-06-10T10:27:20;27.70;91.30
74513;DHT22;62992;52.052;8.550;2023-06-10T10:30:07;27.50;91.70
74513;DHT22;62992;52.052;8.550;2023-06-10T10:33:04;27.90;92.60
74513;DHT22;62992;52.052;8.550;2023-06-10T10:35:49;28.00;92.20
74513;DHT22;62992;52.052;8.550;2023-06-10T10:38:34;27.90;92.40
74513;DHT22;62992;52.052;8.550;2023-06-10T10:41:19;27.90;92.30
74513;DHT22;62992;52.052;8.550;2023-06-10T10:44:05;27.90;93.00
74513;DHT22;62992;52.052;8.550;2023-06-10T10:46:51;27.80;92.60
74513;DHT22;62992;52.052;8.550;2023-06-10T10:49:35;27.90;92.40
74513;DHT22;62992;52.052;8.550;2023-06-10T10:52:21;27.80;91.80
74513;DHT22;62992;52.052;8.550;2023-06-10T10:55:05;27.90;92.60
74513;DHT22;62992;52.052;8.550;2023-06-10T11:00:43;27.80;92.10
74513;DHT22;62992;52.052;8.550;2023-06-10T11:03:29;28.20;92.70
74513;DHT22;62992;52.052;8.550;2023-06-10T11:06:17;28.20;90.00
74513;DHT22;62992;52.052;8.550;2023-06-10T11:09:02;28.00;88.70
74513;DHT22;62992;52.052;8.550;2023-06-10T11:12:06;28.20;89.90
74513;DHT22;62992;52.052;8.550;2023-06-10T11:14:56;28.40;90.30
74513;DHT22;62992;52.052;8.550;2023-06-10T11:23:34;28.10;89.30
74513;DHT22;62992;52.052;8.550;2023-06-10T11:29:15;27.90;90.00
74513;DHT22;62992;52.052;8.550;2023-06-10T11:31:59;27.90;87.60
74513;DHT22;62992;52.052;8.550;2023-06-10T11:34:44;27.70;90.10
74513;DHT22;62992;52.052;8.550;2023-06-10T11:37:35;28.00;89.50
74513;DHT22;62992;52.052;8.550;2023-06-10T11:40:19;28.30;89.50
74513;DHT22;62992;52.052;8.550;2023-06-10T11:43:04;28.30;88.70
74513;DHT22;62992;52.052;8.550;2023-06-10T11:45:53;28.30;89.10
74513;DHT22;62992;52.052;8.550;2023-06-10T11:48:37;27.90;86.60
74513;DHT22;62992;52.052;8.550;2023-06-10T11:51:21;27.90;89.30
74513;DHT22;62992;52.052;8.550;2023-06-10T11:54:06;27.90;86.90
74513;DHT22;62992;52.052;8.550;2023-06-10T11:56:56;28.00;85.30
74513;DHT22;62992;52.052;8.550;2023-06-10T11:59:40;28.20;86.50
74513;DHT22;62992;52.052;8.550;2023-06-10T12:02:25;28.30;84.00
74513;DHT22;62992;52.052;8.550;2023-06-10T12:05:09;27.70;84.60
74513;DHT22;62992;52.052;8.550;2023-06-10T12:08:09;27.70;85.80
74513;DHT22;62992;52.052;8.550;2023-06-10T12:10:54;27.70;88.30
74513;DHT22;62992;52.052;8.550;2023-06-10T12:13:45;28.10;86.30
74513;DHT22;62992;52.052;8.550;2023-06-10T12:16:31;27.70;89.10
74513;DHT22;62992;52.052;8.550;2023-06-10T12:19:16;28.20;88.20
74513;DHT22;62992;52.052;8.550;2023-06-10T12:22:00;28.00;87.40
74513;DHT22;62992;52.052;8.550;2023-06-10T12:24:46;27.70;88.80
74513;DHT22;62992;52.052;8.550;2023-06-10T12:27:49;27.70;89.60
74513;DHT22;62992;52.052;8.550;2023-06-10T12:30:34;27.30;89.60
74513;DHT22;62992;52.052;8.550;2023-06-10T12:36:02;27.70;88.60
74513;DHT22;62992;52.052;8.550;2023-06-10T12:38:46;27.50;88.00
74513;DHT22;62992;52.052;8.550;2023-06-10T12:41:36;27.20;90.50
74513;DHT22;62992;52.052;8.550;2023-06-10T12:44:30;27.10;90.40
74513;DHT22;62992;52.052;8.550;2023-06-10T12:47:14;27.20;90.20
74513;DHT22;62992;52.052;8.550;2023-06-10T12:49:59;27.40;90.90
74513;DHT22;62992;52.052;8.550;2023-06-10T12:52:43;27.40;90.90
74513;DHT22;62992;52.052;8.550;2023-06-10T12:55:27;27.50;91.10
74513;DHT22;62992;52.052;8.550;2023-06-10T12:58:12;27.10;90.90
74513;DHT22;62992;52.052;8.550;2023-06-10T13:00:57;27.30;91.20
74513;DHT22;62992;52.052;8.550;2023-06-10T13:03:43;27.40;91.40
74513;DHT22;62992;52.052;8.550;2023-06-10T13:06:27;27.50;91.30
74513;DHT22;62992;52.052;8.550;2023-06-10T13:09:15;27.40;90.80
74513;DHT22;62992;52.052;8.550;2023-06-10T13:11:59;27.60;91.90
74513;DHT22;62992;52.052;8.550;2023-06-10T13:14:43;27.40;90.20
74513;DHT22;62992;52.052;8.550;2023-06-10T13:17:28;27.30;90.30
74513;DHT22;62992;52.052;8.550;2023-06-10T13:20:12;27.30;90.20
74513;DHT22;62992;52.052;8.550;2023-06-10T13:22:56;27.30;90.00
74513;DHT22;62992;52.052;8.550;2023-06-10T13:25:40;27.40;90.30
74513;DHT22;62992;52.052;8.550;2023-06-10T13:28:25;27.40;90.40
74513;DHT22;62992;52.052;8.550;2023-06-10T13:31:09;27.30;90.50
74513;DHT22;62992;52.052;8.550;2023-06-10T13:33:53;27.30;90.40
74513;DHT22;62992;52.052;8.550;2023-06-10T13:36:37;27.40;90.60
74513;DHT22;62992;52.052;8.550;2023-06-10T13:39:21;27.30;90.10
74513;DHT22;62992;52.052;8.550;2023-06-10T13:42:06;27.30;90.80
74513;DHT22;62992;52.052;8.550;2023-06-10T13:44:51;27.30;90.90
74513;DHT22;62992;52.052;8.550;2023-06-10T13:47:36;27.50;91.00
74513;DHT22;62992;52.052;8.550;2023-06-10T13:50:20;27.50;90.80
74513;DHT22;62992;52.052;8.550;2023-06-10T13:53:04;27.50;91.50
74513;DHT22;62992;52.052;8.550;2023-06-10T13:55:48;27.50;91.60
74513;DHT22;62992;52.052;8.550;2023-06-10T13:58:32;27.40;91.30
74513;DHT22;62992;52.052;8.550;2023-06-10T14:01:22;27.30;91.20
74513;DHT22;62992;52.052;8.550;2023-06-10T14:04:06;27.40;92.10
74513;DHT22;62992;52.052;8.550;2023-06-10T14:06:51;27.50;91.50
74513;DHT22;62992;52.052;8.550;2023-06-10T14:09:35;27.30;91.20
74513;DHT22;62992;52.052;8.550;2023-06-10T14:12:19;27.30;91.50
74513;DHT22;62992;52.052;8.550;2023-06-10T14:15:04;27.30;91.10
74513;DHT22;62992;52.052;8.550;2023-06-10T14:17:48;27.40;90.90
74513;DHT22;62992;52.052;8.550;2023-06-10T14:20:32;27.40;91.00
74513;DHT22;62992;52.052;8.550;2023-06-10T14:23:17;27.30;90.50
74513;DHT22;62992;52.052;8.550;2023-06-10T14:26:01;27.50;91.70
74513;DHT22;62992;52.052;8.550;2023-06-10T14:28:47;27.40;91.40
74513;DHT22;62992;52.052;8.550;2023-06-10T14:31:31;27.40;91.40
74513;DHT22;62992;52.052;8.550;2023-06-10T14:34:15;27.30;91.70
74513;DHT22;62992;52.052;8.550;2023-06-10T14:36:59;27.40;91.90
74513;DHT22;62992;52.052;8.550;2023-06-10T14:39:43;27.40;91.10
74513;DHT22;62992;52.052;8.550;2023-06-10T14:42:27;27.40;91.10
74513;DHT22;62992;52.052;8.550;2023-06-10T14:45:12;27.40;92.10
74513;DHT22;62992;52.052;8.550;2023-06-10T14:47:56;27.40;92.20
74513;DHT22;62992;52.052;8.550;2023-06-10T14:50:40;27.40;92.20
74513;DHT22;62992;52.052;8.550;2023-06-10T14:53:28;27.30;92.20
74513;DHT22;62992;52.052;8.550;2023-06-10T14:56:12;27.30;92.00
74513;DHT22;62992;52.052;8.550;2023-06-10T14:58:57;27.40;92.20
74513;DHT22;62992;52.052;8.550;2023-06-10T15:01:41;27.40;92.40
74513;DHT22;62992;52.052;8.550;2023-06-10T15:04:25;27.50;92.20
74513;DHT22;62992;52.052;8.550;2023-06-10T15:07:09;27.30;92.40
74513;DHT22;62992;52.052;8.550;2023-06-10T15:09:54;27.30;92.70
74513;DHT22;62992;52.052;8.550;2023-06-10T15:12:38;27.30;92.80
74513;DHT22;62992;52.052;8.550;2023-06-10T15:15:22;27.30;92.50
74513;DHT22;62992;52.052;8.550;2023-06-10T15:18:07;27.30;92.70
74513;DHT22;62992;52.052;8.550;2023-06-10T15:20:51;27.30;92.40
74513;DHT22;62992;52.052;8.550;2023-06-10T15:23:35;27.20;92.80
74513;DHT22;62992;52.052;8.550;2023-06-10T15:26:19;27.20;92.80
74513;DHT22;62992;52.052;8.550;2023-06-10T15:29:04;27.30;92.60
74513;DHT22;62992;52.052;8.550;2023-06-10T15:31:48;27.30;92.60
74513;DHT22;62992;52.052;8.550;2023-06-10T15:34:32;27.20;92.10
74513;DHT22;62992;52.052;8.550;2023-06-10T15:37:16;27.20;92.50
74513;DHT22;62992;52.052;8.550;2023-06-10T15:40:01;27.10;92.10
74513;DHT22;62992;52.052;8.550;2023-06-10T15:42:45;27.10;91.90
74513;DHT22;62992;52.052;8.550;2023-06-10T15:45:29;27.10;91.90
74513;DHT22;62992;52.052;8.550;2023-06-10T15:48:13;27.00;92.20
74513;DHT22;62992;52.052;8.550;2023-06-10T15:50:57;27.10;92.10
74513;DHT22;62992;52.052;8.550;2023-06-10T15:53:41;27.00;92.10
74513;DHT22;62992;52.052;8.550;2023-06-10T15:56:26;27.00;91.90
74513;DHT22;62992;52.052;8.550;2023-06-10T15:59:10;27.00;92.50
74513;DHT22;62992;52.052;8.550;2023-06-10T16:01:55;27.00;91.20
74513;DHT22;62992;52.052;8.550;2023-06-10T16:04:39;27.00;91.20
74513;DHT22;62992;52.052;8.550;2023-06-10T16:07:24;27.00;91.50
74513;DHT22;62992;52.052;8.550;2023-06-10T16:10:08;26.90;91.90
74513;DHT22;62992;52.052;8.550;2023-06-10T16:12:52;26.90;92.30
74513;DHT22;62992;52.052;8.550;2023-06-10T16:15:36;26.90;92.50
74513;DHT22;62992;52.052;8.550;2023-06-10T16:18:21;26.90;92.00
74513;DHT22;62992;52.052;8.550;2023-06-10T16:21:05;26.90;92.50
74513;DHT22;62992;52.052;8.550;2023-06-10T16:23:49;26.80;92.20
74513;DHT22;62992;52.052;8.550;2023-06-10T16:26:33;26.80;92.40
74513;DHT22;62992;52.052;8.550;2023-06-10T16:29:18;26.80;92.60
74513;DHT22;62992;52.052;8.550;2023-06-10T16:32:02;26.80;92.70
74513;DHT22;62992;52.052;8.550;2023-06-10T16:34:46;26.80;93.00
74513;DHT22;62992;52.052;8.550;2023-06-10T16:37:30;26.80;92.60
74513;DHT22;62992;52.052;8.550;2023-06-10T16:40:15;26.80;92.60
74513;DHT22;62992;52.052;8.550;2023-06-10T16:42:59;26.70;93.70
74513;DHT22;62992;52.052;8.550;2023-06-10T16:45:43;26.70;92.60
74513;DHT22;62992;52.052;8.550;2023-06-10T16:48:27;26.60;92.30
74513;DHT22;62992;52.052;8.550;2023-06-10T16:51:11;26.60;92.60
74513;DHT22;62992;52.052;8.550;2023-06-10T16:53:56;26.60;92.90
74513;DHT22;62992;52.052;8.550;2023-06-10T16:56:40;26.60;92.00
74513;DHT22;62992;52.052;8.550;2023-06-10T16:59:24;26.60;91.70
74513;DHT22;62992;52.052;8.550;2023-06-10T17:02:08;26.50;91.90
74513;DHT22;62992;52.052;8.550;2023-06-10T17:04:53;26.50;91.50
74513;DHT22;62992;52.052;8.550;2023-06-10T17:07:37;26.40;91.50
74513;DHT22;62992;52.052;8.550;2023-06-10T17:10:21;26.50;91.40
74513;DHT22;62992;52.052;8.550;2023-06-10T17:13:05;26.40;92.30
74513;DHT22;62992;52.052;8.550;2023-06-10T17:15:49;26.40;91.90
74513;DHT22;62992;52.052;8.550;2023-06-10T17:18:34;26.40;91.40
74513;DHT22;62992;52.052;8.550;2023-06-10T17:21:19;26.30;92.10
74513;DHT22;62992;52.052;8.550;2023-06-10T17:24:03;26.40;92.20
74513;DHT22;62992;52.052;8.550;2023-06-10T17:26:47;26.40;92.50
74513;DHT22;62992;52.052;8.550;2023-06-10T17:29:32;26.30;92.90
74513;DHT22;62992;52.052;8.550;2023-06-10T17:32:16;26.20;92.80
74513;DHT22;62992;52.052;8.550;2023-06-10T17:35:01;26.20;92.90
74513;DHT22;62992;52.052;8.550;2023-06-10T17:37:45;26.20;92.70
74513;DHT22;62992;52.052;8.550;2023-06-10T17:40:29;26.10;92.80